sensor_id;sensor_type;location;lat;lon;timestamp;P1;durP1;ratioP1;P2;durP2;ratioP2
10410;SDS011;5251;52.112;8.606;2022-07-29T00:01:32;1.80;;;1.17;;
10410;SDS011;5251;52.112;8.606;2022-07-29T00:03:58;3.00;;;1.20;;
10410;SDS011;5251;52.112;8.606;2022-07-29T00:06:24;6.68;;;1.23;;
10410;SDS011;5251;52.112;8.606;2022-07-29T00:08:49;2.92;;;1.40;;
10410;SDS011;5251;52.112;8.606;2022-07-29T00:11:15;1.92;;;1.40;;
10410;SDS011;5251;52.112;8.606;2022-07-29T00:13:40;3.15;;;1.20;;
10410;SDS011;5251;52.112;8.606;2022-07-29T00:16:06;1.10;;;1.00;;
10410;SDS011;5251;52.112;8.606;2022-07-29T00:18:31;3.65;;;1.40;;
10410;SDS011;5251;52.112;8.606;2022-07-29T00:20:57;1.95;;;1.10;;
10410;SDS011;5251;52.112;8.606;2022-07-29T00:23:23;2.65;;;1.40;;
10410;SDS011;5251;52.112;8.606;2022-07-29T00:25:48;2.65;;;1.15;;
10410;SDS011;5251;52.112;8.606;2022-07-29T00:28:14;2.15;;;1.25;;
10410;SDS011;5251;52.112;8.606;2022-07-29T00:30:39;1.88;;;1.30;;
10410;SDS011;5251;52.112;8.606;2022-07-29T00:33:07;2.38;;;1.42;;
10410;SDS011;5251;52.112;8.606;2022-07-29T00:35:33;1.80;;;1.35;;
10410;SDS011;5251;52.112;8.606;2022-07-29T00:38:15;3.40;;;1.30;;
10410;SDS011;5251;52.112;8.606;2022-07-29T00:40:42;1.95;;;1.10;;
10410;SDS011;5251;52.112;8.606;2022-07-29T00:43:08;2.58;;;1.20;;
10410;SDS011;5251;52.112;8.606;2022-07-29T00:45:34;2.08;;;1.17;;
10410;SDS011;5251;52.112;8.606;2022-07-29T00:48:00;1.88;;;1.10;;
10410;SDS011;5251;52.112;8.606;2022-07-29T00:50:26;4.03;;;1.65;;
10410;SDS011;5251;52.112;8.606;2022-07-29T00:52:51;2.03;;;1.25;;
10410;SDS011;5251;52.112;8.606;2022-07-29T00:55:17;2.08;;;0.95;;
10410;SDS011;5251;52.112;8.606;2022-07-29T00:57:44;2.00;;;1.20;;
10410;SDS011;5251;52.112;8.606;2022-07-29T01:00:11;1.92;;;1.10;;
10410;SDS011;5251;52.112;8.606;2022-07-29T01:02:42;1.65;;;1.00;;
10410;SDS011;5251;52.112;8.606;2022-07-29T01:05:08;2.53;;;1.40;;
10410;SDS011;5251;52.112;8.606;2022-07-29T01:07:36;2.90;;;1.00;;
10410;SDS011;5251;52.112;8.606;2022-07-29T01:10:03;1.10;;;1.00;;
10410;SDS011;5251;52.112;8.606;2022-07-29T01:12:31;2.33;;;1.23;;
10410;SDS011;5251;52.112;8.606;2022-07-29T01:14:58;1.73;;;1.10;;
10410;SDS011;5251;52.112;8.606;2022-07-29T01:31:10;2.40;;;1.25;;
10410;SDS011;5251;52.112;8.606;2022-07-29T01:33:41;3.13;;;1.40;;
10410;SDS011;5251;52.112;8.606;2022-07-29T01:36:16;1.42;;;1.10;;
10410;SDS011;5251;52.112;8.606;2022-07-29T01:38:50;1.25;;;1.15;;
10410;SDS011;5251;52.112;8.606;2022-07-29T01:41:23;1.50;;;1.10;;
10410;SDS011;5251;52.112;8.606;2022-07-29T01:43:53;1.63;;;0.98;;
10410;SDS011;5251;52.112;8.606;2022-07-29T01:46:27;2.38;;;1.10;;
10410;SDS011;5251;52.112;8.606;2022-07-29T01:49:02;1.48;;;1.00;;
10410;SDS011;5251;52.112;8.606;2022-07-29T01:51:48;2.42;;;1.17;;
10410;SDS011;5251;52.112;8.606;2022-07-29T01:56:50;2.28;;;1.35;;
10410;SDS011;5251;52.112;8.606;2022-07-29T01:59:18;1.95;;;1.27;;
10410;SDS011;5251;52.112;8.606;2022-07-29T02:01:46;1.20;;;1.00;;
10410;SDS011;5251;52.112;8.606;2022-07-29T02:04:13;2.35;;;1.20;;
10410;SDS011;5251;52.112;8.606;2022-07-29T02:06:41;1.85;;;1.33;;
10410;SDS011;5251;52.112;8.606;2022-07-29T02:09:09;2.08;;;1.00;;
10410;SDS011;5251;52.112;8.606;2022-07-29T02:11:37;2.88;;;1.10;;
10410;SDS011;5251;52.112;8.606;2022-07-29T02:14:04;2.47;;;1.27;;
10410;SDS011;5251;52.112;8.606;2022-07-29T02:16:32;2.20;;;1.10;;
10410;SDS011;5251;52.112;8.606;2022-07-29T02:19:00;3.67;;;1.13;;
10410;SDS011;5251;52.112;8.606;2022-07-29T02:21:27;1.90;;;1.35;;
10410;SDS011;5251;52.112;8.606;2022-07-29T02:23:54;1.63;;;1.30;;
10410;SDS011;5251;52.112;8.606;2022-07-29T02:26:24;2.22;;;1.10;;
10410;SDS011;5251;52.112;8.606;2022-07-29T02:28:52;1.63;;;1.10;;
10410;SDS011;5251;52.112;8.606;2022-07-29T02:31:22;1.15;;;1.05;;
10410;SDS011;5251;52.112;8.606;2022-07-29T02:33:50;4.78;;;1.40;;
10410;SDS011;5251;52.112;8.606;2022-07-29T02:36:17;2.00;;;1.10;;
10410;SDS011;5251;52.112;8.606;2022-07-29T02:38:47;4.70;;;1.00;;
10410;SDS011;5251;52.112;8.606;2022-07-29T02:41:28;1.85;;;1.13;;
10410;SDS011;5251;52.112;8.606;2022-07-29T02:44:01;2.35;;;1.23;;
10410;SDS011;5251;52.112;8.606;2022-07-29T02:46:31;2.13;;;1.08;;
10410;SDS011;5251;52.112;8.606;2022-07-29T02:49:02;1.65;;;1.20;;
10410;SDS011;5251;52.112;8.606;2022-07-29T02:51:40;1.70;;;1.40;;
10410;SDS011;5251;52.112;8.606;2022-07-29T02:54:10;1.00;;;0.90;;
10410;SDS011;5251;52.112;8.606;2022-07-29T02:56:39;3.45;;;1.30;;
10410;SDS011;5251;52.112;8.606;2022-07-29T02:59:09;3.58;;;1.15;;
10410;SDS011;5251;52.112;8.606;2022-07-29T03:01:36;1.38;;;1.10;;
10410;SDS011;5251;52.112;8.606;2022-07-29T03:04:05;2.83;;;1.20;;
10410;SDS011;5251;52.112;8.606;2022-07-29T03:06:33;2.95;;;1.30;;
10410;SDS011;5251;52.112;8.606;2022-07-29T03:08:59;3.13;;;1.30;;
10410;SDS011;5251;52.112;8.606;2022-07-29T03:11:25;1.98;;;1.30;;
10410;SDS011;5251;52.112;8.606;2022-07-29T03:13:51;2.38;;;1.38;;
10410;SDS011;5251;52.112;8.606;2022-07-29T03:16:19;2.45;;;1.20;;
10410;SDS011;5251;52.112;8.606;2022-07-29T03:18:45;1.33;;;1.23;;
10410;SDS011;5251;52.112;8.606;2022-07-29T03:21:12;3.03;;;1.20;;
10410;SDS011;5251;52.112;8.606;2022-07-29T03:23:38;2.75;;;1.13;;
10410;SDS011;5251;52.112;8.606;2022-07-29T03:26:10;4.00;;;1.10;;
10410;SDS011;5251;52.112;8.606;2022-07-29T03:28:36;1.90;;;1.10;;
10410;SDS011;5251;52.112;8.606;2022-07-29T03:31:01;3.17;;;1.20;;
10410;SDS011;5251;52.112;8.606;2022-07-29T03:33:27;1.70;;;1.10;;
10410;SDS011;5251;52.112;8.606;2022-07-29T03:35:53;2.28;;;1.10;;
10410;SDS011;5251;52.112;8.606;2022-07-29T03:38:19;2.35;;;1.30;;
10410;SDS011;5251;52.112;8.606;2022-07-29T03:40:49;1.75;;;1.35;;
10410;SDS011;5251;52.112;8.606;2022-07-29T03:43:19;3.22;;;1.40;;
10410;SDS011;5251;52.112;8.606;2022-07-29T03:45:47;2.55;;;1.20;;
10410;SDS011;5251;52.112;8.606;2022-07-29T03:48:16;3.28;;;1.20;;
10410;SDS011;5251;52.112;8.606;2022-07-29T03:50:45;2.05;;;1.40;;
10410;SDS011;5251;52.112;8.606;2022-07-29T03:53:11;1.67;;;1.20;;
10410;SDS011;5251;52.112;8.606;2022-07-29T03:55:38;1.85;;;1.30;;
10410;SDS011;5251;52.112;8.606;2022-07-29T03:58:06;3.38;;;1.35;;
10410;SDS011;5251;52.112;8.606;2022-07-29T04:00:33;3.35;;;1.33;;
10410;SDS011;5251;52.112;8.606;2022-07-29T04:02:59;2.38;;;1.30;;
10410;SDS011;5251;52.112;8.606;2022-07-29T04:05:26;2.20;;;1.10;;
10410;SDS011;5251;52.112;8.606;2022-07-29T04:07:51;1.75;;;1.10;;
10410;SDS011;5251;52.112;8.606;2022-07-29T04:10:17;1.40;;;1.30;;
10410;SDS011;5251;52.112;8.606;2022-07-29T04:12:43;1.65;;;1.10;;
10410;SDS011;5251;52.112;8.606;2022-07-29T04:15:10;1.65;;;1.17;;
10410;SDS011;5251;52.112;8.606;2022-07-29T04:17:36;1.20;;;1.10;;
10410;SDS011;5251;52.112;8.606;2022-07-29T04:20:02;1.77;;;1.38;;
10410;SDS011;5251;52.112;8.606;2022-07-29T04:22:28;2.05;;;1.20;;
10410;SDS011;5251;52.112;8.606;2022-07-29T04:24:54;3.92;;;1.35;;
10410;SDS011;5251;52.112;8.606;2022-07-29T04:27:19;3.25;;;1.25;;
10410;SDS011;5251;52.112;8.606;2022-07-29T04:29:45;2.22;;;1.35;;
10410;SDS011;5251;52.112;8.606;2022-07-29T04:32:11;1.90;;;1.20;;
10410;SDS011;5251;52.112;8.606;2022-07-29T04:34:36;1.65;;;1.23;;
10410;SDS011;5251;52.112;8.606;2022-07-29T04:37:02;1.58;;;1.17;;
10410;SDS011;5251;52.112;8.606;2022-07-29T04:39:27;3.08;;;1.40;;
10410;SDS011;5251;52.112;8.606;2022-07-29T04:41:53;1.50;;;1.13;;
10410;SDS011;5251;52.112;8.606;2022-07-29T04:44:19;3.95;;;1.40;;
10410;SDS011;5251;52.112;8.606;2022-07-29T04:46:44;3.20;;;1.08;;
10410;SDS011;5251;52.112;8.606;2022-07-29T04:49:10;3.70;;;1.42;;
10410;SDS011;5251;52.112;8.606;2022-07-29T04:51:35;2.42;;;1.40;;
10410;SDS011;5251;52.112;8.606;2022-07-29T04:54:01;1.50;;;1.30;;
10410;SDS011;5251;52.112;8.606;2022-07-29T04:56:27;1.35;;;1.20;;
10410;SDS011;5251;52.112;8.606;2022-07-29T04:58:52;1.88;;;1.30;;
10410;SDS011;5251;52.112;8.606;2022-07-29T05:01:18;2.25;;;1.25;;
10410;SDS011;5251;52.112;8.606;2022-07-29T05:03:44;1.98;;;1.30;;
10410;SDS011;5251;52.112;8.606;2022-07-29T05:06:10;1.60;;;1.25;;
10410;SDS011;5251;52.112;8.606;2022-07-29T05:08:36;2.33;;;1.65;;
10410;SDS011;5251;52.112;8.606;2022-07-29T05:11:02;3.28;;;1.50;;
10410;SDS011;5251;52.112;8.606;2022-07-29T05:13:28;2.40;;;1.30;;
10410;SDS011;5251;52.112;8.606;2022-07-29T05:15:54;1.50;;;1.13;;
10410;SDS011;5251;52.112;8.606;2022-07-29T05:18:20;3.30;;;1.55;;
10410;SDS011;5251;52.112;8.606;2022-07-29T05:20:45;3.88;;;1.50;;
10410;SDS011;5251;52.112;8.606;2022-07-29T05:23:11;2.17;;;1.25;;
10410;SDS011;5251;52.112;8.606;2022-07-29T05:25:40;5.47;;;1.33;;
10410;SDS011;5251;52.112;8.606;2022-07-29T05:28:05;2.30;;;1.30;;
10410;SDS011;5251;52.112;8.606;2022-07-29T05:30:31;2.20;;;1.55;;
10410;SDS011;5251;52.112;8.606;2022-07-29T05:32:57;2.38;;;1.15;;
10410;SDS011;5251;52.112;8.606;2022-07-29T05:35:22;2.20;;;1.40;;
10410;SDS011;5251;52.112;8.606;2022-07-29T05:37:48;2.92;;;1.20;;
10410;SDS011;5251;52.112;8.606;2022-07-29T05:40:13;2.58;;;1.15;;
10410;SDS011;5251;52.112;8.606;2022-07-29T05:42:39;2.08;;;1.35;;
10410;SDS011;5251;52.112;8.606;2022-07-29T05:45:05;3.25;;;1.20;;
10410;SDS011;5251;52.112;8.606;2022-07-29T05:47:31;3.45;;;2.00;;
10410;SDS011;5251;52.112;8.606;2022-07-29T05:49:56;1.50;;;1.20;;
10410;SDS011;5251;52.112;8.606;2022-07-29T05:52:22;2.10;;;1.38;;
10410;SDS011;5251;52.112;8.606;2022-07-29T05:54:48;3.33;;;1.33;;
10410;SDS011;5251;52.112;8.606;2022-07-29T05:59:46;1.75;;;1.40;;
10410;SDS011;5251;52.112;8.606;2022-07-29T06:02:13;4.25;;;1.40;;
10410;SDS011;5251;52.112;8.606;2022-07-29T06:04:38;2.25;;;1.38;;
10410;SDS011;5251;52.112;8.606;2022-07-29T06:07:04;3.20;;;1.30;;
10410;SDS011;5251;52.112;8.606;2022-07-29T06:09:31;2.70;;;2.10;;
10410;SDS011;5251;52.112;8.606;2022-07-29T06:11:57;2.40;;;1.67;;
10410;SDS011;5251;52.112;8.606;2022-07-29T06:14:23;2.97;;;1.85;;
10410;SDS011;5251;52.112;8.606;2022-07-29T06:16:49;3.00;;;1.65;;
10410;SDS011;5251;52.112;8.606;2022-07-29T06:19:15;5.40;;;1.50;;
10410;SDS011;5251;52.112;8.606;2022-07-29T06:21:41;4.22;;;1.38;;
10410;SDS011;5251;52.112;8.606;2022-07-29T06:24:08;3.03;;;1.30;;
10410;SDS011;5251;52.112;8.606;2022-07-29T06:26:35;2.58;;;1.27;;
10410;SDS011;5251;52.112;8.606;2022-07-29T06:29:01;3.10;;;1.50;;
10410;SDS011;5251;52.112;8.606;2022-07-29T06:31:26;2.05;;;1.40;;
10410;SDS011;5251;52.112;8.606;2022-07-29T06:33:52;2.65;;;1.20;;
10410;SDS011;5251;52.112;8.606;2022-07-29T06:36:18;2.35;;;1.23;;
10410;SDS011;5251;52.112;8.606;2022-07-29T06:38:43;3.63;;;1.63;;
10410;SDS011;5251;52.112;8.606;2022-07-29T06:41:09;2.35;;;1.30;;
10410;SDS011;5251;52.112;8.606;2022-07-29T06:43:38;3.70;;;1.80;;
10410;SDS011;5251;52.112;8.606;2022-07-29T06:46:09;3.67;;;1.60;;
10410;SDS011;5251;52.112;8.606;2022-07-29T06:48:37;2.75;;;1.35;;
10410;SDS011;5251;52.112;8.606;2022-07-29T06:51:03;2.15;;;1.42;;
10410;SDS011;5251;52.112;8.606;2022-07-29T06:53:30;3.60;;;1.60;;
10410;SDS011;5251;52.112;8.606;2022-07-29T06:55:56;3.05;;;1.40;;
10410;SDS011;5251;52.112;8.606;2022-07-29T06:58:23;1.95;;;0.98;;
10410;SDS011;5251;52.112;8.606;2022-07-29T07:00:49;4.28;;;1.50;;
10410;SDS011;5251;52.112;8.606;2022-07-29T07:03:15;2.75;;;1.20;;
10410;SDS011;5251;52.112;8.606;2022-07-29T07:05:42;3.50;;;1.33;;
10410;SDS011;5251;52.112;8.606;2022-07-29T07:08:08;2.55;;;1.10;;
10410;SDS011;5251;52.112;8.606;2022-07-29T07:10:33;2.28;;;1.40;;
10410;SDS011;5251;52.112;8.606;2022-07-29T07:12:59;2.30;;;1.48;;
10410;SDS011;5251;52.112;8.606;2022-07-29T07:15:26;2.83;;;1.40;;
10410;SDS011;5251;52.112;8.606;2022-07-29T07:17:52;2.83;;;1.27;;
10410;SDS011;5251;52.112;8.606;2022-07-29T07:20:18;4.18;;;1.30;;
10410;SDS011;5251;52.112;8.606;2022-07-29T07:22:44;6.10;;;1.52;;
10410;SDS011;5251;52.112;8.606;2022-07-29T07:25:10;2.15;;;1.30;;
10410;SDS011;5251;52.112;8.606;2022-07-29T07:27:37;1.92;;;1.40;;
10410;SDS011;5251;52.112;8.606;2022-07-29T07:30:04;2.33;;;1.33;;
10410;SDS011;5251;52.112;8.606;2022-07-29T07:32:33;2.50;;;1.55;;
10410;SDS011;5251;52.112;8.606;2022-07-29T07:35:00;2.28;;;1.40;;
10410;SDS011;5251;52.112;8.606;2022-07-29T07:37:26;1.70;;;1.30;;
10410;SDS011;5251;52.112;8.606;2022-07-29T07:39:52;2.42;;;1.42;;
10410;SDS011;5251;52.112;8.606;2022-07-29T07:42:17;2.85;;;1.63;;
10410;SDS011;5251;52.112;8.606;2022-07-29T07:44:44;2.03;;;1.40;;
10410;SDS011;5251;52.112;8.606;2022-07-29T07:47:10;1.75;;;1.30;;
10410;SDS011;5251;52.112;8.606;2022-07-29T07:49:37;2.03;;;1.30;;
10410;SDS011;5251;52.112;8.606;2022-07-29T07:52:03;2.55;;;1.20;;
10410;SDS011;5251;52.112;8.606;2022-07-29T07:54:29;2.33;;;1.30;;
10410;SDS011;5251;52.112;8.606;2022-07-29T07:56:54;2.63;;;1.30;;
10410;SDS011;5251;52.112;8.606;2022-07-29T07:59:20;2.50;;;1.48;;
10410;SDS011;5251;52.112;8.606;2022-07-29T08:01:45;5.70;;;1.50;;
10410;SDS011;5251;52.112;8.606;2022-07-29T08:04:11;1.63;;;1.17;;
10410;SDS011;5251;52.112;8.606;2022-07-29T08:06:37;2.60;;;1.27;;
10410;SDS011;5251;52.112;8.606;2022-07-29T08:09:03;2.33;;;1.10;;
10410;SDS011;5251;52.112;8.606;2022-07-29T08:11:29;4.78;;;1.10;;
10410;SDS011;5251;52.112;8.606;2022-07-29T08:13:55;2.55;;;1.35;;
10410;SDS011;5251;52.112;8.606;2022-07-29T08:16:21;2.85;;;1.48;;
10410;SDS011;5251;52.112;8.606;2022-07-29T08:18:46;4.15;;;1.70;;
10410;SDS011;5251;52.112;8.606;2022-07-29T08:21:13;2.75;;;1.30;;
10410;SDS011;5251;52.112;8.606;2022-07-29T08:23:40;1.95;;;1.15;;
10410;SDS011;5251;52.112;8.606;2022-07-29T08:26:11;2.83;;;1.40;;
10410;SDS011;5251;52.112;8.606;2022-07-29T08:28:38;2.08;;;1.05;;
10410;SDS011;5251;52.112;8.606;2022-07-29T08:31:04;1.20;;;0.95;;
10410;SDS011;5251;52.112;8.606;2022-07-29T08:33:31;2.45;;;1.25;;
10410;SDS011;5251;52.112;8.606;2022-07-29T08:35:57;2.63;;;1.35;;
10410;SDS011;5251;52.112;8.606;2022-07-29T08:38:22;2.53;;;1.25;;
10410;SDS011;5251;52.112;8.606;2022-07-29T08:40:48;2.13;;;1.20;;
10410;SDS011;5251;52.112;8.606;2022-07-29T08:43:14;2.42;;;1.23;;
10410;SDS011;5251;52.112;8.606;2022-07-29T08:45:47;1.70;;;1.10;;
10410;SDS011;5251;52.112;8.606;2022-07-29T08:48:17;3.30;;;1.23;;
10410;SDS011;5251;52.112;8.606;2022-07-29T08:50:45;2.88;;;1.52;;
10410;SDS011;5251;52.112;8.606;2022-07-29T08:53:13;2.45;;;1.30;;
10410;SDS011;5251;52.112;8.606;2022-07-29T08:55:44;2.60;;;1.58;;
10410;SDS011;5251;52.112;8.606;2022-07-29T08:58:11;1.77;;;1.42;;
10410;SDS011;5251;52.112;8.606;2022-07-29T09:00:40;3.13;;;1.35;;
10410;SDS011;5251;52.112;8.606;2022-07-29T09:03:15;1.92;;;1.30;;
10410;SDS011;5251;52.112;8.606;2022-07-29T09:05:42;1.70;;;1.30;;
10410;SDS011;5251;52.112;8.606;2022-07-29T09:08:10;3.55;;;1.60;;
10410;SDS011;5251;52.112;8.606;2022-07-29T09:10:36;1.67;;;1.30;;
10410;SDS011;5251;52.112;8.606;2022-07-29T09:13:01;2.72;;;1.48;;
10410;SDS011;5251;52.112;8.606;2022-07-29T09:15:27;2.85;;;1.20;;
10410;SDS011;5251;52.112;8.606;2022-07-29T09:17:53;2.67;;;1.65;;
10410;SDS011;5251;52.112;8.606;2022-07-29T09:20:20;2.00;;;1.17;;
10410;SDS011;5251;52.112;8.606;2022-07-29T09:22:48;1.92;;;1.10;;
10410;SDS011;5251;52.112;8.606;2022-07-29T09:25:15;2.30;;;1.10;;
10410;SDS011;5251;52.112;8.606;2022-07-29T09:28:15;4.72;;;1.25;;
10410;SDS011;5251;52.112;8.606;2022-07-29T09:30:55;2.03;;;1.20;;
10410;SDS011;5251;52.112;8.606;2022-07-29T09:33:23;2.28;;;1.15;;
10410;SDS011;5251;52.112;8.606;2022-07-29T09:36:13;1.83;;;1.27;;
10410;SDS011;5251;52.112;8.606;2022-07-29T09:38:39;2.80;;;1.67;;
10410;SDS011;5251;52.112;8.606;2022-07-29T09:41:04;2.95;;;1.30;;
10410;SDS011;5251;52.112;8.606;2022-07-29T09:43:31;4.10;;;1.35;;
10410;SDS011;5251;52.112;8.606;2022-07-29T09:46:08;2.60;;;1.40;;
10410;SDS011;5251;52.112;8.606;2022-07-29T09:48:36;1.98;;;1.40;;
10410;SDS011;5251;52.112;8.606;2022-07-29T09:51:02;2.55;;;1.20;;
10410;SDS011;5251;52.112;8.606;2022-07-29T09:53:34;3.03;;;1.40;;
10410;SDS011;5251;52.112;8.606;2022-07-29T09:56:02;1.83;;;1.30;;
10410;SDS011;5251;52.112;8.606;2022-07-29T09:58:29;2.45;;;1.60;;
10410;SDS011;5251;52.112;8.606;2022-07-29T10:00:55;3.80;;;1.45;;
10410;SDS011;5251;52.112;8.606;2022-07-29T10:03:21;2.45;;;1.40;;
10410;SDS011;5251;52.112;8.606;2022-07-29T10:06:04;2.67;;;1.65;;
10410;SDS011;5251;52.112;8.606;2022-07-29T10:08:30;1.98;;;1.55;;
10410;SDS011;5251;52.112;8.606;2022-07-29T10:11:08;4.65;;;1.55;;
10410;SDS011;5251;52.112;8.606;2022-07-29T10:13:35;5.28;;;1.80;;
10410;SDS011;5251;52.112;8.606;2022-07-29T10:16:01;2.30;;;1.50;;
10410;SDS011;5251;52.112;8.606;2022-07-29T10:18:27;2.67;;;1.55;;
10410;SDS011;5251;52.112;8.606;2022-07-29T10:20:54;3.60;;;1.70;;
10410;SDS011;5251;52.112;8.606;2022-07-29T10:23:21;2.95;;;1.67;;
10410;SDS011;5251;52.112;8.606;2022-07-29T10:25:47;4.13;;;1.52;;
10410;SDS011;5251;52.112;8.606;2022-07-29T10:28:12;5.03;;;1.67;;
10410;SDS011;5251;52.112;8.606;2022-07-29T10:30:38;2.97;;;1.80;;
10410;SDS011;5251;52.112;8.606;2022-07-29T10:33:21;3.03;;;1.60;;
10410;SDS011;5251;52.112;8.606;2022-07-29T10:36:27;4.95;;;1.70;;
10410;SDS011;5251;52.112;8.606;2022-07-29T10:39:11;3.05;;;1.77;;
10410;SDS011;5251;52.112;8.606;2022-07-29T10:44:34;3.70;;;1.75;;
10410;SDS011;5251;52.112;8.606;2022-07-29T10:47:04;2.20;;;1.63;;
10410;SDS011;5251;52.112;8.606;2022-07-29T10:49:30;1.98;;;1.55;;
10410;SDS011;5251;52.112;8.606;2022-07-29T10:59:39;3.63;;;1.60;;
10410;SDS011;5251;52.112;8.606;2022-07-29T11:07:25;3.63;;;1.90;;
10410;SDS011;5251;52.112;8.606;2022-07-29T11:15:15;2.78;;;2.03;;
10410;SDS011;5251;52.112;8.606;2022-07-29T11:26:14;3.05;;;2.00;;
10410;SDS011;5251;52.112;8.606;2022-07-29T11:31:38;4.78;;;1.80;;
10410;SDS011;5251;52.112;8.606;2022-07-29T11:39:33;3.17;;;1.80;;
10410;SDS011;5251;52.112;8.606;2022-07-29T11:44:56;2.30;;;1.80;;
10410;SDS011;5251;52.112;8.606;2022-07-29T11:47:35;4.30;;;2.17;;
10410;SDS011;5251;52.112;8.606;2022-07-29T11:50:01;5.38;;;1.95;;
10410;SDS011;5251;52.112;8.606;2022-07-29T11:52:32;3.10;;;1.98;;
10410;SDS011;5251;52.112;8.606;2022-07-29T11:54:59;5.43;;;2.50;;
10410;SDS011;5251;52.112;8.606;2022-07-29T11:57:27;3.25;;;2.35;;
10410;SDS011;5251;52.112;8.606;2022-07-29T11:59:53;2.60;;;2.00;;
10410;SDS011;5251;52.112;8.606;2022-07-29T12:02:22;4.75;;;2.50;;
10410;SDS011;5251;52.112;8.606;2022-07-29T12:07:15;4.88;;;2.63;;
10410;SDS011;5251;52.112;8.606;2022-07-29T12:09:41;4.45;;;2.63;;
10410;SDS011;5251;52.112;8.606;2022-07-29T12:12:17;2.75;;;2.40;;
10410;SDS011;5251;52.112;8.606;2022-07-29T12:14:44;3.72;;;2.35;;
10410;SDS011;5251;52.112;8.606;2022-07-29T12:19:54;2.90;;;2.25;;
10410;SDS011;5251;52.112;8.606;2022-07-29T12:22:34;3.47;;;2.50;;
10410;SDS011;5251;52.112;8.606;2022-07-29T12:25:09;2.35;;;2.10;;
10410;SDS011;5251;52.112;8.606;2022-07-29T12:27:37;3.05;;;2.05;;
10410;SDS011;5251;52.112;8.606;2022-07-29T12:30:07;3.67;;;2.10;;
10410;SDS011;5251;52.112;8.606;2022-07-29T12:32:47;3.72;;;1.90;;
10410;SDS011;5251;52.112;8.606;2022-07-29T12:35:18;2.63;;;2.10;;
10410;SDS011;5251;52.112;8.606;2022-07-29T12:37:45;3.42;;;2.00;;
10410;SDS011;5251;52.112;8.606;2022-07-29T12:40:17;3.33;;;1.95;;
10410;SDS011;5251;52.112;8.606;2022-07-29T12:45:31;4.43;;;2.28;;
10410;SDS011;5251;52.112;8.606;2022-07-29T12:47:56;4.82;;;2.25;;
10410;SDS011;5251;52.112;8.606;2022-07-29T12:50:22;4.28;;;1.92;;
10410;SDS011;5251;52.112;8.606;2022-07-29T12:52:48;2.85;;;1.98;;
10410;SDS011;5251;52.112;8.606;2022-07-29T12:55:14;3.70;;;2.13;;
10410;SDS011;5251;52.112;8.606;2022-07-29T12:57:46;2.60;;;2.15;;
10410;SDS011;5251;52.112;8.606;2022-07-29T13:00:14;3.05;;;2.10;;
10410;SDS011;5251;52.112;8.606;2022-07-29T13:02:41;3.95;;;2.25;;
10410;SDS011;5251;52.112;8.606;2022-07-29T13:05:07;3.03;;;2.00;;
10410;SDS011;5251;52.112;8.606;2022-07-29T13:07:35;4.43;;;2.00;;
10410;SDS011;5251;52.112;8.606;2022-07-29T13:10:17;3.67;;;2.42;;
10410;SDS011;5251;52.112;8.606;2022-07-29T13:15:38;3.53;;;1.90;;
10410;SDS011;5251;52.112;8.606;2022-07-29T13:18:41;4.25;;;1.80;;
10410;SDS011;5251;52.112;8.606;2022-07-29T13:21:13;3.78;;;1.75;;
10410;SDS011;5251;52.112;8.606;2022-07-29T13:23:40;2.78;;;1.70;;
10410;SDS011;5251;52.112;8.606;2022-07-29T13:26:07;3.25;;;2.13;;
10410;SDS011;5251;52.112;8.606;2022-07-29T13:28:33;3.38;;;1.98;;
10410;SDS011;5251;52.112;8.606;2022-07-29T13:31:00;3.00;;;1.80;;
10410;SDS011;5251;52.112;8.606;2022-07-29T13:33:25;2.53;;;1.67;;
10410;SDS011;5251;52.112;8.606;2022-07-29T13:35:51;3.30;;;1.70;;
10410;SDS011;5251;52.112;8.606;2022-07-29T13:38:16;3.33;;;2.03;;
10410;SDS011;5251;52.112;8.606;2022-07-29T13:40:42;3.03;;;1.65;;
10410;SDS011;5251;52.112;8.606;2022-07-29T13:43:09;2.97;;;1.80;;
10410;SDS011;5251;52.112;8.606;2022-07-29T13:45:35;2.92;;;1.80;;
10410;SDS011;5251;52.112;8.606;2022-07-29T13:48:00;2.67;;;1.83;;
10410;SDS011;5251;52.112;8.606;2022-07-29T13:50:26;3.90;;;1.77;;
10410;SDS011;5251;52.112;8.606;2022-07-29T13:52:52;4.32;;;1.67;;
10410;SDS011;5251;52.112;8.606;2022-07-29T13:55:18;4.07;;;1.65;;
10410;SDS011;5251;52.112;8.606;2022-07-29T13:57:43;3.78;;;2.00;;
10410;SDS011;5251;52.112;8.606;2022-07-29T14:00:09;1.67;;;1.42;;
10410;SDS011;5251;52.112;8.606;2022-07-29T14:02:35;4.85;;;1.92;;
10410;SDS011;5251;52.112;8.606;2022-07-29T14:05:03;4.28;;;2.20;;
10410;SDS011;5251;52.112;8.606;2022-07-29T14:07:29;1.90;;;1.70;;
10410;SDS011;5251;52.112;8.606;2022-07-29T14:09:55;3.08;;;1.63;;
10410;SDS011;5251;52.112;8.606;2022-07-29T14:12:21;3.17;;;1.67;;
10410;SDS011;5251;52.112;8.606;2022-07-29T14:14:47;3.58;;;1.85;;
10410;SDS011;5251;52.112;8.606;2022-07-29T14:17:13;3.13;;;1.83;;
10410;SDS011;5251;52.112;8.606;2022-07-29T14:19:39;4.53;;;1.92;;
10410;SDS011;5251;52.112;8.606;2022-07-29T14:22:05;3.33;;;1.88;;
10410;SDS011;5251;52.112;8.606;2022-07-29T14:24:32;4.88;;;2.00;;
10410;SDS011;5251;52.112;8.606;2022-07-29T14:26:58;2.85;;;1.70;;
10410;SDS011;5251;52.112;8.606;2022-07-29T14:29:24;2.55;;;1.80;;
10410;SDS011;5251;52.112;8.606;2022-07-29T14:31:49;2.22;;;1.77;;
10410;SDS011;5251;52.112;8.606;2022-07-29T14:34:15;3.70;;;1.45;;
10410;SDS011;5251;52.112;8.606;2022-07-29T14:36:41;3.78;;;2.00;;
10410;SDS011;5251;52.112;8.606;2022-07-29T14:39:06;6.85;;;2.08;;
10410;SDS011;5251;52.112;8.606;2022-07-29T14:41:32;2.80;;;2.00;;
10410;SDS011;5251;52.112;8.606;2022-07-29T14:43:58;3.45;;;2.15;;
10410;SDS011;5251;52.112;8.606;2022-07-29T14:46:25;4.85;;;1.85;;
10410;SDS011;5251;52.112;8.606;2022-07-29T14:48:51;2.95;;;2.08;;
10410;SDS011;5251;52.112;8.606;2022-07-29T14:51:17;3.70;;;1.80;;
10410;SDS011;5251;52.112;8.606;2022-07-29T14:53:43;3.20;;;2.10;;
10410;SDS011;5251;52.112;8.606;2022-07-29T14:56:09;4.00;;;2.00;;
10410;SDS011;5251;52.112;8.606;2022-07-29T14:58:34;6.18;;;2.00;;
10410;SDS011;5251;52.112;8.606;2022-07-29T15:01:00;3.72;;;2.00;;
10410;SDS011;5251;52.112;8.606;2022-07-29T15:03:26;6.28;;;1.92;;
10410;SDS011;5251;52.112;8.606;2022-07-29T15:05:52;3.65;;;2.33;;
10410;SDS011;5251;52.112;8.606;2022-07-29T15:08:19;6.25;;;2.13;;
10410;SDS011;5251;52.112;8.606;2022-07-29T15:10:44;3.80;;;1.92;;
10410;SDS011;5251;52.112;8.606;2022-07-29T15:13:10;4.43;;;2.20;;
10410;SDS011;5251;52.112;8.606;2022-07-29T15:15:36;3.47;;;2.03;;
10410;SDS011;5251;52.112;8.606;2022-07-29T15:18:01;3.53;;;1.95;;
10410;SDS011;5251;52.112;8.606;2022-07-29T15:20:27;2.88;;;2.25;;
10410;SDS011;5251;52.112;8.606;2022-07-29T15:22:53;3.50;;;1.90;;
10410;SDS011;5251;52.112;8.606;2022-07-29T15:25:20;4.15;;;2.05;;
10410;SDS011;5251;52.112;8.606;2022-07-29T15:27:50;3.22;;;2.13;;
10410;SDS011;5251;52.112;8.606;2022-07-29T15:30:16;6.57;;;2.50;;
10410;SDS011;5251;52.112;8.606;2022-07-29T15:32:42;5.75;;;2.28;;
10410;SDS011;5251;52.112;8.606;2022-07-29T15:35:08;3.22;;;1.98;;
10410;SDS011;5251;52.112;8.606;2022-07-29T15:37:37;6.80;;;2.50;;
10410;SDS011;5251;52.112;8.606;2022-07-29T15:40:04;6.20;;;2.10;;
10410;SDS011;5251;52.112;8.606;2022-07-29T15:42:30;3.80;;;2.53;;
10410;SDS011;5251;52.112;8.606;2022-07-29T15:44:56;6.50;;;2.58;;
10410;SDS011;5251;52.112;8.606;2022-07-29T15:47:22;3.83;;;2.50;;
10410;SDS011;5251;52.112;8.606;2022-07-29T15:49:48;3.10;;;2.20;;
10410;SDS011;5251;52.112;8.606;2022-07-29T15:52:14;5.20;;;2.20;;
10410;SDS011;5251;52.112;8.606;2022-07-29T15:54:42;5.75;;;2.60;;
10410;SDS011;5251;52.112;8.606;2022-07-29T15:57:07;6.00;;;2.80;;
10410;SDS011;5251;52.112;8.606;2022-07-29T15:59:33;4.30;;;2.35;;
10410;SDS011;5251;52.112;8.606;2022-07-29T16:01:59;4.85;;;2.33;;
10410;SDS011;5251;52.112;8.606;2022-07-29T16:04:25;4.22;;;2.22;;
10410;SDS011;5251;52.112;8.606;2022-07-29T16:06:51;6.10;;;2.55;;
10410;SDS011;5251;52.112;8.606;2022-07-29T16:09:17;3.10;;;1.92;;
10410;SDS011;5251;52.112;8.606;2022-07-29T16:11:43;6.93;;;2.92;;
10410;SDS011;5251;52.112;8.606;2022-07-29T16:14:10;4.05;;;1.98;;